Time;durP1;ratioP1;P1;durP2;ratioP2;P2;SDS_P1;SDS_P2;PMS_P1;PMS_P2;Temp;Humidity;BMP_temperature;BMP_pressure;BME280_temperature;BME280_humidity;BME280_pressure;Samples;Min_cycle;Max_cycle;Signal;HPM_P1;HPM_P2
2022/11/04 00:01:34;;;;;;;10.25;6.65;;;12.00;99.90;;;;;;7410969;19;19907;-83
2022/11/04 00:04:03;;;;;;;11.82;6.43;;;12.00;99.90;;;;;;7406830;19;20383;-83
2022/11/04 00:06:32;;;;;;;8.05;4.93;;;12.00;99.90;;;;;;7410832;19;19914;-84
2022/11/04 00:09:01;;;;;;;10.18;7.28;;;12.00;99.90;;;;;;7409605;19;19925;-84
2022/11/04 00:14:13;;;;;;;8.15;3.75;;;11.90;99.90;;;;;;7409935;19;20552;-84
2022/11/04 00:19:26;;;;;;;12.10;7.45;;;12.00;99.90;;;;;;7409733;19;19956;-84
2022/11/04 00:30:02;;;;;;;9.45;6.40;;;12.00;99.90;;;;;;7406792;19;19919;-83
2022/11/04 00:35:15;;;;;;;10.38;6.15;;;11.90;99.90;;;;;;7410124;19;20344;-83
2022/11/04 00:37:46;;;;;;;9.90;6.28;;;11.80;99.90;;;;;;7404794;19;19978;-84
2022/11/04 00:40:16;;;;;;;9.52;5.88;;;11.90;99.90;;;;;;7406687;19;19914;-84
2022/11/04 00:42:47;;;;;;;7.65;4.95;;;11.90;99.90;;;;;;7407967;19;19932;-83
2022/11/04 00:45:16;;;;;;;7.65;5.65;;;12.00;99.90;;;;;;7406545;19;19918;-83
2022/11/04 00:47:48;;;;;;;8.80;5.45;;;12.00;99.90;;;;;;7406331;19;19932;-82
2022/11/04 00:50:17;;;;;;;10.38;6.13;;;12.00;99.90;;;;;;7404508;19;20225;-83
2022/11/04 00:52:46;;;;;;;10.27;5.32;;;12.00;99.90;;;;;;7406705;19;20308;-84
2022/11/04 00:55:15;;;;;;;7.28;4.63;;;12.10;99.90;;;;;;7406131;19;19915;-83
2022/11/04 00:57:44;;;;;;;4.60;2.67;;;12.10;99.90;;;;;;7406169;19;20499;-83
2022/11/04 01:00:15;;;;;;;8.80;4.72;;;12.10;99.90;;;;;;7409541;19;19917;-83
2022/11/04 01:02:44;;;;;;;7.32;4.35;;;12.30;99.90;;;;;;7405201;19;19915;-83
2022/11/04 01:05:16;;;;;;;5.97;4.80;;;12.30;99.90;;;;;;7404446;19;19914;-83
2022/11/04 01:07:45;;;;;;;6.63;3.60;;;12.30;99.90;;;;;;7405738;19;20341;-82
2022/11/04 01:10:14;;;;;;;5.10;2.83;;;12.40;99.90;;;;;;7405515;19;19919;-83
2022/11/04 01:12:43;;;;;;;5.70;4.63;;;12.40;99.90;;;;;;7405742;19;19918;-83
2022/11/04 01:15:12;;;;;;;5.45;3.08;;;12.40;99.90;;;;;;7407448;19;20328;-83
2022/11/04 01:17:41;;;;;;;6.45;3.25;;;12.40;99.90;;;;;;7408045;19;19982;-83
2022/11/04 01:20:12;;;;;;;5.10;2.88;;;12.50;99.90;;;;;;7405445;19;20493;-84
2022/11/04 01:22:43;;;;;;;4.13;2.13;;;12.50;99.90;;;;;;7405621;19;19919;-83
2022/11/04 01:25:12;;;;;;;5.32;2.40;;;12.60;99.90;;;;;;7403586;19;19910;-83
2022/11/04 01:27:41;;;;;;;2.42;1.42;;;12.80;99.90;;;;;;7405324;19;19940;-83
2022/11/04 01:30:12;;;;;;;3.92;1.95;;;12.90;99.90;;;;;;7405565;19;19911;-83
2022/11/04 01:32:41;;;;;;;2.42;0.88;;;13.00;99.90;;;;;;7406714;19;19921;-83
2022/11/04 01:35:11;;;;;;;2.30;0.80;;;13.00;99.90;;;;;;7409337;19;19923;-83
2022/11/04 01:37:42;;;;;;;2.65;1.50;;;13.00;99.90;;;;;;7405931;19;19919;-84
2022/11/04 01:40:12;;;;;;;3.67;1.77;;;13.10;99.90;;;;;;7404883;19;19986;-83
2022/11/04 01:42:41;;;;;;;3.63;1.77;;;13.20;99.90;;;;;;7404989;19;19921;-84
2022/11/04 01:45:15;;;;;;;2.15;0.73;;;13.10;99.90;;;;;;7403216;19;19914;-83
2022/11/04 01:47:47;;;;;;;2.25;1.20;;;13.10;99.90;;;;;;7406469;19;19927;-83
2022/11/04 01:50:21;;;;;;;6.50;0.85;;;13.10;99.90;;;;;;7404996;19;19911;-83
2022/11/04 01:52:57;;;;;;;1.63;0.45;;;13.00;99.90;;;;;;7404425;19;19939;-84
2022/11/04 01:55:29;;;;;;;2.25;0.77;;;13.10;99.90;;;;;;7404158;19;19925;-84
2022/11/04 01:58:02;;;;;;;3.97;0.90;;;13.00;99.90;;;;;;7406340;19;19918;-83
2022/11/04 02:00:31;;;;;;;1.73;0.40;;;13.00;99.90;;;;;;7403933;19;19914;-84
2022/11/04 02:03:03;;;;;;;15.00;0.80;;;13.00;99.90;;;;;;7405630;19;19936;-85
2022/11/04 02:05:34;;;;;;;2.00;0.30;;;13.10;99.90;;;;;;7404009;19;19930;-83
2022/11/04 02:08:08;;;;;;;2.35;0.47;;;13.10;99.90;;;;;;7406288;19;19926;-84
2022/11/04 02:10:37;;;;;;;1.30;0.10;;;13.30;99.90;;;;;;7404046;19;19918;-84
2022/11/04 02:13:04;;;;;;;1.13;0.17;;;13.20;99.90;;;;;;7404353;19;19914;-83
2022/11/04 02:15:41;;;;;;;1.95;0.43;;;13.10;99.90;;;;;;7404126;19;20341;-83
2022/11/04 02:18:37;;;;;;;0.82;0.20;;;13.10;99.90;;;;;;7407547;19;19919;-83
2022/11/04 02:21:48;;;;;;;1.02;0.10;;;13.00;99.90;;;;;;7406185;19;19914;-83
2022/11/04 02:24:49;;;;;;;1.42;0.32;;;13.10;99.90;;;;;;7398708;19;19921;-84
2022/11/04 02:27:28;;;;;;;1.20;0.93;;;13.10;99.90;;;;;;7405919;19;19941;-83
2022/11/04 02:30:08;;;;;;;1.15;0.47;;;13.10;99.90;;;;;;7404601;19;19918;-83
2022/11/04 02:32:48;;;;;;;2.10;0.20;;;12.90;99.90;;;;;;7406996;19;19919;-83
2022/11/04 02:35:23;;;;;;;0.65;0.10;;;12.80;99.90;;;;;;7402511;19;19914;-83
2022/11/04 02:37:59;;;;;;;1.55;0.08;;;12.80;99.90;;;;;;7403248;19;19981;-83
2022/11/04 02:40:36;;;;;;;1.10;0.38;;;12.70;99.90;;;;;;7403727;19;19924;-84
2022/11/04 02:43:12;;;;;;;1.63;0.13;;;12.60;99.90;;;;;;7405905;19;19923;-84
2022/11/04 02:45:46;;;;;;;1.02;0.00;;;12.60;99.90;;;;;;7400139;19;19974;-82
2022/11/04 02:48:22;;;;;;;0.35;0.10;;;12.50;99.90;;;;;;7403155;19;19914;-84
2022/11/04 02:50:55;;;;;;;1.45;0.10;;;12.50;99.90;;;;;;7403292;19;19918;-83
2022/11/04 02:53:32;;;;;;;1.75;0.00;;;12.50;99.90;;;;;;7403045;19;19919;-83
2022/11/04 02:56:04;;;;;;;1.98;0.32;;;12.40;99.90;;;;;;7403215;19;19911;-83
2022/11/04 02:58:37;;;;;;;1.85;0.05;;;12.30;99.90;;;;;;7403586;19;19934;-83
2022/11/04 03:01:12;;;;;;;0.95;0.10;;;12.30;99.90;;;;;;7403128;19;20261;-83
2022/11/04 03:03:45;;;;;;;1.45;0.20;;;12.40;99.90;;;;;;7400827;19;19921;-83
2022/11/04 03:06:16;;;;;;;1.15;0.08;;;12.50;99.90;;;;;;7402081;19;20387;-83
2022/11/04 03:08:50;;;;;;;0.60;0.00;;;12.50;99.90;;;;;;7402017;19;19918;-83
2022/11/04 03:11:22;;;;;;;0.40;0.10;;;12.60;99.90;;;;;;7402240;19;19917;-83
2022/11/04 03:13:56;;;;;;;1.95;0.20;;;12.50;99.90;;;;;;7412027;19;20352;-83
2022/11/04 03:16:32;;;;;;;0.75;0.30;;;12.50;99.90;;;;;;7411633;19;20341;-83
2022/11/04 03:19:03;;;;;;;;;;;12.60;99.90;;;;;;7410934;19;20260;-83
2022/11/04 03:21:35;;;;;;;0.80;0.30;;;12.50;99.90;;;;;;7408852;19;19925;-84
2022/11/04 03:24:05;;;;;;;0.70;0.00;;;12.50;99.90;;;;;;7408054;19;19935;-83
2022/11/04 03:26:42;;;;;;;2.28;0.28;;;12.40;99.90;;;;;;7409260;19;19919;-83
2022/11/04 03:29:22;;;;;;;1.30;0.40;;;12.40;99.90;;;;;;7408565;19;19926;-83
2022/11/04 03:32:06;;;;;;;2.53;0.30;;;12.40;99.90;;;;;;7408269;19;19988;-83
2022/11/04 03:34:35;;;;;;;1.23;0.17;;;12.40;99.90;;;;;;7407655;19;19922;-83
2022/11/04 03:37:04;;;;;;;1.83;0.20;;;12.40;99.90;;;;;;7408388;19;19911;-83
2022/11/04 03:39:33;;;;;;;2.08;0.30;;;12.30;99.90;;;;;;7408357;19;19938;-84
2022/11/04 03:42:18;;;;;;;1.73;0.00;;;12.30;99.90;;;;;;7409480;19;19918;-83
2022/11/04 03:44:49;;;;;;;1.77;0.43;;;12.20;99.90;;;;;;7407793;19;19925;-83
2022/11/04 03:47:23;;;;;;;0.75;0.08;;;12.30;99.90;;;;;;7408361;19;19914;-84
2022/11/04 03:49:55;;;;;;;1.73;0.10;;;12.30;99.90;;;;;;7409676;19;20263;-84
2022/11/04 03:52:23;;;;;;;0.85;0.10;;;12.30;99.90;;;;;;7408253;19;19926;-84
2022/11/04 03:54:52;;;;;;;1.48;0.30;;;12.20;99.90;;;;;;7410844;19;19926;-84
2022/11/04 03:57:45;;;;;;;0.90;0.30;;;12.20;99.90;;;;;;7412009;19;19926;-84
2022/11/04 04:00:17;;;;;;;1.00;0.10;;;12.20;99.90;;;;;;7407628;19;19922;-83
2022/11/04 04:03:08;;;;;;;1.85;0.13;;;12.10;99.90;;;;;;7409311;19;20328;-84
2022/11/04 04:05:40;;;;;;;0.85;0.00;;;12.10;99.90;;;;;;7406061;19;19921;-83
2022/11/04 04:08:22;;;;;;;2.88;0.25;;;12.10;99.90;;;;;;7411684;19;20341;-83
2022/11/04 04:10:59;;;;;;;0.55;0.10;;;12.10;99.90;;;;;;7407743;19;20368;-84
2022/11/04 04:13:39;;;;;;;0.60;0.20;;;12.20;99.90;;;;;;7409327;19;19921;-83
2022/11/04 04:16:12;;;;;;;1.55;0.25;;;12.20;99.90;;;;;;7407830;19;19922;-82
2022/11/04 04:18:49;;;;;;;1.13;0.10;;;12.20;99.90;;;;;;7407306;19;20357;-83
2022/11/04 04:21:23;;;;;;;1.90;0.50;;;12.20;99.90;;;;;;7407514;19;19915;-83
2022/11/04 04:29:20;;;;;;;2.38;0.10;;;12.20;99.90;;;;;;7407084;19;20268;-83
2022/11/04 04:31:56;;;;;;;0.80;0.30;;;12.10;99.90;;;;;;7409605;19;19919;-84
2022/11/04 04:34:30;;;;;;;1.30;0.30;;;12.10;99.90;;;;;;7406706;19;19939;-83
2022/11/04 04:37:04;;;;;;;1.30;0.13;;;12.00;99.90;;;;;;7406843;19;19935;-83
2022/11/04 04:45:23;;;;;;;1.92;0.32;;;11.80;99.90;;;;;;7403440;19;19926;-84
2022/11/04 04:47:52;;;;;;;1.00;0.17;;;11.80;99.90;;;;;;7406598;19;19915;-83
2022/11/04 04:50:24;;;;;;;1.42;0.32;;;11.80;99.90;;;;;;7408768;19;20347;-83
2022/11/04 04:52:56;;;;;;;1.25;0.30;;;11.80;99.90;;;;;;7406575;19;19922;-85
2022/11/04 04:55:25;;;;;;;1.08;0.30;;;12.00;99.90;;;;;;7405947;19;19926;-83
2022/11/04 04:57:54;;;;;;;0.82;0.30;;;12.10;99.90;;;;;;7409613;19;19921;-83
2022/11/04 05:00:24;;;;;;;1.05;0.28;;;12.20;99.90;;;;;;7406577;19;20250;-84
2022/11/04 05:02:53;;;;;;;0.40;0.15;;;12.20;99.90;;;;;;7405667;19;19923;-83
2022/11/04 05:05:24;;;;;;;1.13;0.10;;;12.20;99.90;;;;;;7405310;19;19911;-85
2022/11/04 05:07:53;;;;;;;1.33;0.00;;;12.20;99.90;;;;;;7405974;19;19910;-83
2022/11/04 05:10:22;;;;;;;1.52;0.50;;;12.30;99.90;;;;;;7405736;19;19921;-83
2022/11/04 05:15:33;;;;;;;2.00;0.17;;;12.00;99.90;;;;;;7407996;19;20027;-84
2022/11/04 05:18:03;;;;;;;;;;;12.10;99.90;;;;;;7408129;19;19949;-83
2022/11/04 05:20:37;;;;;;;2.03;0.03;;;12.10;99.90;;;;;;7402019;19;20407;-85
2022/11/04 05:23:06;;;;;;;11.25;0.50;;;12.10;99.90;;;;;;7405581;19;19919;-84
2022/11/04 05:25:34;;;;;;;1.17;0.32;;;12.20;99.90;;;;;;7403467;19;19925;-82
2022/11/04 05:28:04;;;;;;;14.57;0.95;;;12.30;99.90;;;;;;7406241;19;19925;-84
2022/11/04 05:30:33;;;;;;;4.68;0.45;;;12.30;99.90;;;;;;7406298;19;19930;-84
2022/11/04 05:33:02;;;;;;;8.40;0.35;;;12.30;99.90;;;;;;7409385;19;19936;-86
2022/11/04 05:35:31;;;;;;;2.90;0.10;;;12.10;99.90;;;;;;7404233;19;19915;-85
2022/11/04 05:38:02;;;;;;;7.00;0.47;;;12.00;99.90;;;;;;7405030;19;19943;-85
2022/11/04 05:40:31;;;;;;;5.07;0.65;;;11.90;99.90;;;;;;7404949;19;19949;-87
2022/11/04 05:43:01;;;;;;;3.08;0.20;;;11.70;99.90;;;;;;7405042;19;20378;-86
2022/11/04 05:45:30;;;;;;;17.83;1.77;;;11.80;99.90;;;;;;7406090;19;19918;-88
2022/11/04 05:48:00;;;;;;;3.63;0.82;;;12.00;99.90;;;;;;7404602;19;19914;-86
2022/11/04 05:50:30;;;;;;;2.90;0.10;;;12.50;99.90;;;;;;7406953;19;20299;-86
2022/11/04 05:53:02;;;;;;;2.28;0.20;;;13.00;99.90;;;;;;7407936;19;20320;-85
2022/11/04 05:55:31;;;;;;;2.95;0.25;;;13.30;99.90;;;;;;7404318;19;19919;-86
2022/11/04 05:58:00;;;;;;;2.25;0.20;;;13.40;99.90;;;;;;7405089;19;19982;-86
2022/11/04 06:00:32;;;;;;;5.82;0.50;;;13.60;99.90;;;;;;7407459;19;19988;-85
2022/11/04 06:03:01;;;;;;;6.60;0.40;;;13.90;99.90;;;;;;7404184;19;20353;-85
2022/11/04 06:05:31;;;;;;;2.50;0.43;;;13.70;99.90;;;;;;7405503;19;19919;-85
2022/11/04 06:08:02;;;;;;;2.22;0.13;;;13.80;99.90;;;;;;7404061;19;19926;-88
2022/11/04 06:10:31;;;;;;;2.25;0.30;;;13.80;99.90;;;;;;7404377;19;19926;-87
2022/11/04 06:13:00;;;;;;;3.13;0.20;;;13.60;99.90;;;;;;7408461;19;19986;-85
2022/11/04 06:15:29;;;;;;;0.85;0.00;;;13.40;99.90;;;;;;7406917;19;19922;-84
2022/11/04 06:17:58;;;;;;;4.18;0.50;;;13.40;99.90;;;;;;7403991;19;19987;-88
2022/11/04 06:20:27;;;;;;;0.82;0.10;;;13.30;99.90;;;;;;7403699;19;19923;-87
2022/11/04 06:22:55;;;;;;;0.60;0.00;;;13.00;99.90;;;;;;7407067;19;19994;-86
2022/11/04 06:25:27;;;;;;;2.50;0.50;;;12.80;99.90;;;;;;7403098;19;19919;-88
2022/11/04 06:27:56;;;;;;;0.43;0.03;;;12.70;99.90;;;;;;7405348;19;19915;-89
2022/11/04 06:30:25;;;;;;;2.00;0.38;;;12.90;99.90;;;;;;7403671;19;19926;-86
2022/11/04 06:32:54;;;;;;;1.83;0.00;;;12.90;99.90;;;;;;7404063;19;20265;-88
2022/11/04 06:35:23;;;;;;;2.05;0.45;;;12.80;99.90;;;;;;7405067;19;20345;-91
2022/11/04 06:37:52;;;;;;;0.93;0.10;;;12.50;99.90;;;;;;7403501;19;19915;-95
2022/11/04 06:40:21;;;;;;;3.53;0.10;;;12.30;99.90;;;;;;7405226;19;19922;-92
2022/11/04 06:42:52;;;;;;;2.15;0.10;;;12.00;99.90;;;;;;7403692;19;19985;-92
2022/11/04 06:45:21;;;;;;;1.38;0.00;;;11.90;99.90;;;;;;7405291;19;20535;-84
2022/11/04 06:47:50;;;;;;;6.43;0.70;;;12.10;99.90;;;;;;7408680;19;19918;-86
2022/11/04 06:50:19;;;;;;;3.15;0.40;;;12.00;99.90;;;;;;7410671;19;19926;-84
2022/11/04 06:52:47;;;;;;;60.97;7.85;;;12.20;99.90;;;;;;7413684;19;20330;-85
2022/11/04 06:55:17;;;;;;;446.05;32.35;;;12.10;99.90;;;;;;7410822;19;19918;-83
2022/11/04 06:57:45;;;;;;;5.05;0.20;;;12.10;99.90;;;;;;7408194;19;19919;-85
2022/11/04 07:00:18;;;;;;;4.47;0.45;;;12.20;99.90;;;;;;7401623;19;20382;-84
2022/11/04 07:02:48;;;;;;;4.85;0.85;;;11.80;99.90;;;;;;7404654;19;20344;-90
2022/11/04 07:05:17;;;;;;;2.60;0.25;;;11.60;99.90;;;;;;7413402;19;20337;-85
2022/11/04 07:07:46;;;;;;;4.80;0.45;;;11.80;99.90;;;;;;7409811;19;19915;-92
2022/11/04 07:10:15;;;;;;;6.32;0.35;;;12.00;99.90;;;;;;7412726;19;20314;-86
2022/11/04 07:12:44;;;;;;;;;;;12.00;99.90;;;;;;7410531;19;19919;-91
2022/11/04 07:15:13;;;;;;;2.15;0.30;;;12.30;99.90;;;;;;7412218;19;19922;-91
2022/11/04 07:17:45;;;;;;;49.33;2.58;;;12.70;99.90;;;;;;7407694;19;20264;-84
2022/11/04 07:20:14;;;;;;;8.35;0.65;;;12.80;99.90;;;;;;7408304;19;19911;-85
2022/11/04 07:22:43;;;;;;;3.28;0.25;;;12.80;99.90;;;;;;7408260;19;19922;-85
2022/11/04 07:25:12;;;;;;;2.88;0.60;;;12.70;99.90;;;;;;7407589;19;20325;-86
2022/11/04 07:27:41;;;;;;;5.15;0.68;;;12.80;99.90;;;;;;7408066;19;19919;-85
2022/11/04 07:30:11;;;;;;;2.03;0.40;;;12.70;99.90;;;;;;7408473;19;19919;-85
2022/11/04 07:32:40;;;;;;;2.40;0.38;;;12.70;99.90;;;;;;7409048;19;19919;-85
2022/11/04 07:35:12;;;;;;;2.28;0.50;;;12.60;99.90;;;;;;7408623;19;20392;-85
2022/11/04 07:37:45;;;;;;;1.95;0.30;;;12.70;99.90;;;;;;7411922;19;19955;-86
2022/11/04 07:40:14;;;;;;;3.45;0.63;;;12.70;99.90;;;;;;7408185;19;19924;-85
2022/11/04 07:42:43;;;;;;;1.55;0.20;;;12.70;99.90;;;;;;7408558;19;19911;-85
2022/11/04 07:45:12;;;;;;;2.25;0.35;;;12.40;99.90;;;;;;7408296;19;19933;-85
2022/11/04 07:47:41;;;;;;;1.35;0.10;;;12.50;99.90;;;;;;7408074;19;19978;-86
2022/11/04 07:50:13;;;;;;;2.90;0.10;;;12.50;99.90;;;;;;7411291;19;19924;-85
2022/11/04 07:52:42;;;;;;;1.65;0.10;;;12.50;99.90;;;;;;7408480;19;19918;-85
2022/11/04 07:55:12;;;;;;;0.70;0.10;;;12.30;99.90;;;;;;7408004;19;19919;-85
2022/11/04 07:57:41;;;;;;;3.10;0.38;;;12.20;99.90;;;;;;7407355;19;19922;-86
2022/11/04 08:00:13;;;;;;;2.28;0.13;;;12.30;99.90;;;;;;7407786;19;19914;-86
2022/11/04 08:02:43;;;;;;;2.58;0.13;;;12.30;99.90;;;;;;7405977;19;19942;-85
2022/11/04 08:05:15;;;;;;;3.38;0.57;;;12.20;99.90;;;;;;7406509;19;19929;-85
2022/11/04 08:07:44;;;;;;;1.13;0.40;;;12.00;99.90;;;;;;7405571;19;19919;-85
2022/11/04 08:10:13;;;;;;;1.00;0.20;;;12.10;99.90;;;;;;7405438;19;19939;-86
2022/11/04 08:12:42;;;;;;;2.60;0.20;;;12.30;99.90;;;;;;7405311;19;19966;-86
2022/11/04 08:15:12;;;;;;;3.33;0.13;;;12.50;99.90;;;;;;7405353;19;19915;-86
2022/11/04 08:17:40;;;;;;;;;;;12.60;99.90;;;;;;7407420;19;19923;-86
2022/11/04 08:20:10;;;;;;;0.93;0.00;;;12.70;99.90;;;;;;7407693;19;19922;-85
2022/11/04 08:22:42;;;;;;;2.38;0.30;;;12.90;99.90;;;;;;7404872;19;19918;-85
2022/11/04 08:25:14;;;;;;;1.88;0.30;;;13.10;99.90;;;;;;7404659;19;19914;-86
2022/11/04 08:27:43;;;;;;;1.98;0.60;;;13.40;99.90;;;;;;7402167;19;20272;-86
2022/11/04 08:30:13;;;;;;;1.85;0.30;;;13.20;99.90;;;;;;7404908;19;19918;-85
2022/11/04 08:32:43;;;;;;;3.00;0.25;;;13.20;99.90;;;;;;7405025;19;19918;-85
2022/11/04 08:35:12;;;;;;;1.30;0.40;;;13.20;99.90;;;;;;7404782;19;19922;-86
2022/11/04 08:37:43;;;;;;;2.30;0.40;;;13.40;99.90;;;;;;7404707;19;19931;-87
2022/11/04 08:40:13;;;;;;;0.80;0.03;;;13.40;99.90;;;;;;7404380;19;19918;-86
2022/11/04 08:42:41;;;;;;;3.67;0.05;;;13.50;99.90;;;;;;7404672;19;19918;-85
2022/11/04 08:45:11;;;;;;;1.13;0.08;;;13.60;99.90;;;;;;7404841;19;20355;-85
2022/11/04 08:47:41;;;;;;;1.02;0.17;;;13.80;99.90;;;;;;7403062;19;19921;-86
2022/11/04 08:50:10;;;;;;;0.60;0.00;;;13.70;99.90;;;;;;7406091;19;20006;-86
2022/11/04 08:52:39;;;;;;;2.58;0.10;;;13.90;99.90;;;;;;7404055;19;19929;-86
2022/11/04 08:55:11;;;;;;;0.75;0.00;;;13.90;99.90;;;;;;7404865;19;19918;-86
2022/11/04 08:57:40;;;;;;;0.63;0.10;;;14.00;99.90;;;;;;7404204;19;19929;-84
2022/11/04 09:00:10;;;;;;;2.15;0.10;;;14.20;99.90;;;;;;7404271;19;19945;-86
2022/11/04 09:05:25;;;;;;;1.60;0.50;;;14.20;99.90;;;;;;7440019;19;20891;-85
2022/11/04 09:07:55;;;;;;;2.40;0.52;;;14.00;99.90;;;;;;7439579;19;19914;-86
2022/11/04 09:10:24;;;;;;;2.00;0.57;;;14.00;99.90;;;;;;7439455;19;19915;-86
2022/11/04 09:12:53;;;;;;;1.60;0.60;;;13.90;99.90;;;;;;7442516;19;19922;-86
2022/11/04 09:15:22;;;;;;;1.20;0.00;;;14.00;99.90;;;;;;7440762;19;20344;-87
2022/11/04 09:17:51;;;;;;;1.42;0.10;;;13.80;99.90;;;;;;7439200;19;19930;-85
2022/11/04 09:20:20;;;;;;;2.20;0.60;;;14.10;99.90;;;;;;7439385;19;19918;-87
2022/11/04 09:22:52;;;;;;;1.25;0.30;;;14.30;99.90;;;;;;7442728;19;19925;-85
2022/11/04 09:25:20;;;;;;;3.00;0.25;;;14.30;99.90;;;;;;7435568;19;20330;-86
2022/11/04 09:27:49;;;;;;;1.20;0.40;;;14.40;99.90;;;;;;7438940;19;19928;-86
2022/11/04 09:30:18;;;;;;;10.73;4.25;;;14.30;99.90;;;;;;7439250;19;19915;-89
2022/11/04 09:32:47;;;;;;;4.50;0.43;;;14.30;99.90;;;;;;7439936;19;19926;-88
2022/11/04 09:35:17;;;;;;;10.65;0.80;;;14.20;99.90;;;;;;7434506;19;20019;-90
2022/11/04 09:37:46;;;;;;;6.50;1.05;;;14.30;99.90;;;;;;7437954;19;19921;-85
2022/11/04 09:40:21;;;;;;;7.68;2.60;;;14.20;99.90;;;;;;7440536;19;19918;-85
2022/11/04 09:43:04;;;;;;;5.55;1.05;;;14.10;99.90;;;;;;7435888;19;20024;-87
2022/11/04 09:45:35;;;;;;;8.40;2.80;;;14.10;99.90;;;;;;7440591;19;19922;-87
2022/11/04 09:48:09;;;;;;;13.15;4.30;;;13.90;99.90;;;;;;7437494;19;20240;-87
2022/11/04 09:50:47;;;;;;;14.77;6.30;;;13.80;99.90;;;;;;7438204;19;19922;-86
2022/11/04 09:53:19;;;;;;;4.45;1.58;;;13.70;99.90;;;;;;7438042;19;19951;-86
2022/11/04 09:55:56;;;;;;;8.43;3.17;;;13.60;99.90;;;;;;7439604;19;19914;-86
2022/11/04 09:58:25;;;;;;;6.80;2.47;;;13.60;99.90;;;;;;7437377;19;19923;-87
2022/11/04 10:00:58;;;;;;;10.82;4.32;;;13.70;99.90;;;;;;7440265;19;19919;-86
2022/11/04 10:03:45;;;;;;;6.38;2.38;;;13.70;99.90;;;;;;7436452;19;20404;-85
2022/11/04 10:06:33;;;;;;;2.28;0.90;;;13.70;99.90;;;;;;7441707;19;19922;-87
2022/11/04 10:09:20;;;;;;;7.43;2.33;;;13.70;99.90;;;;;;7438131;19;19919;-85
2022/11/04 10:12:02;;;;;;;16.15;1.98;;;13.70;99.90;;;;;;7437770;19;19914;-87
2022/11/04 10:15:06;;;;;;;4.75;0.52;;;13.90;99.90;;;;;;7435635;19;19918;-87
2022/11/04 10:17:48;;;;;;;3.92;1.17;;;14.00;99.90;;;;;;7409135;19;19938;-86
2022/11/04 10:20:29;;;;;;;2.72;0.63;;;13.90;99.90;;;;;;7410818;19;19918;-86
2022/11/04 10:23:00;;;;;;;2.38;0.80;;;14.00;99.90;;;;;;7408817;19;19925;-87
2022/11/04 10:25:34;;;;;;;3.28;0.20;;;14.00;99.90;;;;;;7406050;19;20237;-87
2022/11/04 10:28:10;;;;;;;3.80;0.88;;;14.00;99.90;;;;;;7409992;19;19914;-86
2022/11/04 10:30:39;;;;;;;2.53;0.22;;;13.80;99.90;;;;;;7408317;19;19919;-86
2022/11/04 10:33:16;;;;;;;3.42;0.85;;;13.80;99.90;;;;;;7408803;19;19930;-87
2022/11/04 10:35:49;;;;;;;3.20;0.50;;;13.80;99.90;;;;;;7408325;19;19922;-87
2022/11/04 10:38:21;;;;;;;2.42;0.70;;;13.80;99.90;;;;;;7406326;19;19925;-86
2022/11/04 10:40:53;;;;;;;2.90;0.90;;;13.80;99.90;;;;;;7408266;19;19934;-87
2022/11/04 10:43:33;;;;;;;3.33;0.93;;;14.00;99.90;;;;;;7411402;19;19918;-88
2022/11/04 10:46:25;;;;;;;4.50;0.60;;;14.10;99.90;;;;;;7410521;19;19922;-87
2022/11/04 10:49:00;;;;;;;2.03;0.20;;;14.20;99.90;;;;;;7408121;19;19914;-86
2022/11/04 10:51:29;;;;;;;4.45;0.60;;;14.20;99.90;;;;;;7408031;19;19915;-87
2022/11/04 10:54:01;;;;;;;4.57;0.20;;;14.20;99.90;;;;;;7409487;19;20259;-87
2022/11/04 10:56:36;;;;;;;3.42;0.68;;;14.10;99.90;;;;;;7407849;19;19922;-86
2022/11/04 10:59:20;;;;;;;3.05;0.10;;;14.10;99.90;;;;;;7407528;19;19926;-87
2022/11/04 11:01:52;;;;;;;1.73;0.57;;;14.20;99.90;;;;;;7407602;19;19911;-87
2022/11/04 11:04:29;;;;;;;3.25;0.35;;;14.20;99.90;;;;;;7406914;19;19930;-87
2022/11/04 11:07:00;;;;;;;2.80;0.73;;;14.20;99.90;;;;;;7407755;19;19918;-86
2022/11/04 11:09:32;;;;;;;2.65;0.57;;;14.20;99.90;;;;;;7407571;19;19941;-87
2022/11/04 11:12:05;;;;;;;3.30;0.88;;;14.20;99.90;;;;;;7408018;19;19988;-87
2022/11/04 11:14:39;;;;;;;3.33;0.93;;;14.20;99.90;;;;;;7408388;19;19981;-87
2022/11/04 11:17:26;;;;;;;2.53;0.70;;;14.30;99.90;;;;;;7409372;19;19952;-87
2022/11/04 11:20:03;;;;;;;2.63;0.57;;;14.50;99.90;;;;;;7407348;19;19982;-87
2022/11/04 11:22:37;;;;;;;3.72;1.15;;;14.60;99.90;;;;;;7406890;19;19990;-86
2022/11/04 11:25:28;;;;;;;2.33;0.30;;;14.70;99.90;;;;;;7405738;19;19918;-87
2022/11/04 11:27:59;;;;;;;2.75;0.75;;;14.80;99.90;;;;;;7402479;19;19923;-88
2022/11/04 11:30:33;;;;;;;4.57;0.88;;;14.70;99.90;;;;;;7408287;19;20352;-86
2022/11/04 11:33:06;;;;;;;3.03;0.60;;;14.70;99.90;;;;;;7403665;19;19918;-92
2022/11/04 11:35:40;;;;;;;3.47;0.90;;;14.70;99.90;;;;;;7406662;19;19918;-87
2022/11/04 11:38:20;;;;;;;2.97;0.95;;;14.60;99.90;;;;;;7404797;19;19950;-86
2022/11/04 11:40:51;;;;;;;4.85;0.50;;;14.50;99.90;;;;;;7409233;19;19950;-88
2022/11/04 11:43:27;;;;;;;4.72;1.48;;;14.60;99.90;;;;;;7407495;19;19923;-86
2022/11/04 11:45:59;;;;;;;;;;;14.40;99.90;;;;;;7406989;19;20549;-87
2022/11/04 11:48:34;;;;;;;4.47;0.57;;;14.20;99.90;;;;;;7408830;19;19942;-90
2022/11/04 11:51:03;;;;;;;5.35;1.38;;;14.10;99.90;;;;;;7405705;19;19990;-88
2022/11/04 11:53:34;;;;;;;5.95;1.58;;;13.90;99.90;;;;;;7408242;19;19933;-87
2022/11/04 11:56:16;;;;;;;7.28;3.10;;;14.00;99.90;;;;;;7399536;19;19942;-94
2022/11/04 11:58:47;;;;;;;;;;;14.10;99.90;;;;;;7403257;19;19915;-89
2022/11/04 12:01:25;;;;;;;3.03;0.63;;;14.20;99.90;;;;;;7407447;19;19939;-92
2022/11/04 12:03:55;;;;;;;5.57;0.93;;;14.50;99.90;;;;;;7405535;19;20323;-91
2022/11/04 12:06:34;;;;;;;7.85;1.90;;;14.80;99.90;;;;;;7406909;19;19918;-92
2022/11/04 12:09:18;;;;;;;4.93;1.38;;;15.10;99.90;;;;;;7408506;19;19926;-91
2022/11/04 12:12:07;;;;;;;5.10;1.70;;;15.30;99.90;;;;;;7406899;19;20358;-93
2022/11/04 12:14:48;;;;;;;5.80;1.55;;;15.30;99.90;;;;;;7402078;19;19919;-94
2022/11/04 12:17:32;;;;;;;12.32;5.22;;;15.20;99.90;;;;;;7405177;19;19919;-90
2022/11/04 12:20:06;;;;;;;4.53;1.13;;;15.20;99.90;;;;;;7403914;19;19923;-89
2022/11/04 12:22:41;;;;;;;3.95;2.30;;;15.20;99.90;;;;;;7404479;19;19918;-89
2022/11/04 12:25:22;;;;;;;3.65;0.70;;;15.20;99.90;;;;;;7402670;19;19918;-87
2022/11/04 12:27:57;;;;;;;3.70;1.25;;;15.30;99.90;;;;;;7403495;19;19918;-89
2022/11/04 12:30:26;;;;;;;;;;;15.20;99.90;;;;;;7406493;19;19930;-91
2022/11/04 12:33:18;;;;;;;43.45;18.38;;;15.10;99.90;;;;;;7403635;19;19919;-86
2022/11/04 12:36:13;;;;;;;5.40;2.15;;;15.10;99.90;;;;;;7403846;19;19918;-86
2022/11/04 12:38:56;;;;;;;5.95;2.10;;;15.20;99.90;;;;;;7405569;19;19926;-90
2022/11/04 12:41:36;;;;;;;5.40;1.70;;;15.20;99.90;;;;;;7401814;19;19926;-89
2022/11/04 12:44:14;;;;;;;4.75;1.17;;;15.10;99.90;;;;;;7402404;19;19971;-90
2022/11/04 12:46:50;;;;;;;5.22;1.50;;;14.90;99.90;;;;;;7404314;19;19937;-89
2022/11/04 12:49:36;;;;;;;;;;;14.80;99.90;;;;;;7408871;19;19945;-87
2022/11/04 12:52:20;;;;;;;4.28;0.60;;;14.70;99.90;;;;;;7401840;19;19937;-88
2022/11/04 12:55:03;;;;;;;6.72;1.33;;;14.60;99.90;;;;;;7404527;19;19915;-88
2022/11/04 12:57:41;;;;;;;4.22;0.70;;;14.30;99.90;;;;;;7404066;19;19933;-90
2022/11/04 13:00:14;;;;;;;6.55;0.85;;;14.20;99.90;;;;;;7401704;19;19974;-89
2022/11/04 13:02:47;;;;;;;4.05;0.80;;;13.90;99.90;;;;;;7398993;19;21650;-89
2022/11/04 13:05:41;;;;;;;3.72;0.20;;;13.40;99.90;;;;;;7403107;19;19928;-88
2022/11/04 13:08:21;;;;;;;2.53;0.68;;;13.10;99.90;;;;;;7402887;19;20553;-88
2022/11/04 13:10:54;;;;;;;4.40;0.22;;;12.90;99.90;;;;;;7399339;19;19942;-91
2022/11/04 13:13:28;;;;;;;2.00;0.43;;;12.90;99.90;;;;;;7400552;19;19929;-89
2022/11/04 13:16:00;;;;;;;4.50;1.17;;;13.10;99.90;;;;;;7402223;19;20322;-95
2022/11/04 13:18:34;;;;;;;5.78;1.25;;;13.10;99.90;;;;;;7403360;19;20348;-90
2022/11/04 13:21:10;;;;;;;2.90;0.22;;;13.20;99.90;;;;;;7404687;19;19926;-87
2022/11/04 13:23:43;;;;;;;2.35;0.47;;;13.10;99.90;;;;;;7401572;19;19922;-87
2022/11/04 13:26:16;;;;;;;6.32;0.20;;;13.10;99.90;;;;;;7402663;19;19918;-88
2022/11/04 13:28:54;;;;;;;1.27;0.60;;;13.20;99.90;;;;;;7405944;19;19922;-87
2022/11/04 13:31:33;;;;;;;2.80;0.20;;;13.20;99.90;;;;;;7406371;19;20263;-88
2022/11/04 13:34:10;;;;;;;1.38;0.15;;;13.20;99.90;;;;;;7402644;19;20342;-88
2022/11/04 13:36:47;;;;;;;3.88;0.50;;;13.10;99.90;;;;;;7402889;19;20439;-87
2022/11/04 13:39:23;;;;;;;3.40;0.40;;;13.10;99.90;;;;;;7404166;19;19918;-88
2022/11/04 13:42:18;;;;;;;3.72;0.30;;;13.30;99.90;;;;;;7401448;19;20470;-88
2022/11/04 13:44:52;;;;;;;1.83;0.10;;;13.30;99.90;;;;;;7402793;19;20542;-87
2022/11/04 13:47:24;;;;;;;1.55;0.20;;;13.30;99.90;;;;;;7404775;19;20300;-87
2022/11/04 13:49:55;;;;;;;1.77;0.10;;;13.10;99.90;;;;;;7405112;19;19914;-87
2022/11/04 13:52:35;;;;;;;5.45;0.32;;;13.20;99.90;;;;;;7411027;19;19919;-87